Time;durP1;ratioP1;P1;durP2;ratioP2;P2;SDS_P1;SDS_P2;PMS_P1;PMS_P2;Temp;Humidity;BMP_temperature;BMP_pressure;BME280_temperature;BME280_humidity;BME280_pressure;Samples;Min_cycle;Max_cycle;Signal;HPM_P1;HPM_P2
2022/06/07 00:01:38;;;;;;;7.65;5.40;;;;;;;14.54;82.47;93947.34;5115951;27;20054;-61
2022/06/07 00:04:05;;;;;;;7.97;5.57;;;;;;;14.55;82.96;93939.88;5131232;27;20057;-60
2022/06/07 00:06:32;;;;;;;7.20;5.53;;;;;;;14.31;83.63;93945.69;5129001;27;20039;-60
2022/06/07 00:08:59;;;;;;;7.57;5.75;;;;;;;14.43;83.04;93948.88;5131582;27;20035;-60
2022/06/07 00:11:26;;;;;;;8.48;5.90;;;;;;;14.35;83.74;93954.63;5132225;27;20461;-60
2022/06/07 00:13:52;;;;;;;7.78;5.50;;;;;;;14.21;84.51;93952.28;5117336;27;20031;-60
2022/06/07 00:16:19;;;;;;;8.73;6.10;;;;;;;14.56;83.33;93946.94;5131990;27;20043;-62
2022/06/07 00:18:46;;;;;;;9.75;6.03;;;;;;;14.52;83.57;93958.06;5131689;27;20503;-58
2022/06/07 00:21:13;;;;;;;7.97;5.95;;;;;;;14.52;83.90;93957.28;5131955;27;20069;-60
2022/06/07 00:23:40;;;;;;;8.43;6.05;;;;;;;14.54;83.99;93958.41;5130636;27;20432;-63
2022/06/07 00:26:07;;;;;;;10.32;6.22;;;;;;;14.46;84.95;93953.53;5131518;27;20092;-63
2022/06/07 00:28:34;;;;;;;7.60;5.93;;;;;;;14.54;84.77;93950.13;5131988;27;20049;-61
2022/06/07 00:31:00;;;;;;;9.70;6.63;;;;;;;14.27;86.33;93947.78;5130126;27;20043;-60
2022/06/07 00:33:27;;;;;;;10.30;7.18;;;;;;;14.07;87.06;93950.69;5131951;27;20047;-60
2022/06/07 00:35:54;;;;;;;9.55;6.80;;;;;;;13.86;89.26;93957.56;5131299;27;20042;-60
2022/06/07 00:38:21;;;;;;;9.75;6.63;;;;;;;13.87;89.07;93952.84;5130914;27;20400;-65
2022/06/07 00:40:48;;;;;;;7.83;5.90;;;;;;;13.95;88.62;93954.19;5131026;27;20066;-61
2022/06/07 00:43:15;;;;;;;8.60;5.88;;;;;;;14.12;87.60;93947.38;5131625;27;20050;-61
2022/06/07 00:45:42;;;;;;;7.25;5.15;;;;;;;13.87;87.95;93952.84;5131634;27;20069;-61
2022/06/07 00:48:09;;;;;;;7.03;5.18;;;;;;;13.78;87.53;93948.72;5131253;27;20065;-60
2022/06/07 00:50:45;;;;;;;8.60;5.85;;;;;;;13.65;89.03;93955.41;5131408;27;20072;-60
2022/06/07 00:53:26;;;;;;;8.47;5.53;;;;;;;13.67;88.48;93951.00;5100471;27;20254;-60
2022/06/07 00:55:54;;;;;;;8.15;5.43;;;;;;;13.33;89.78;93954.25;5131135;27;20473;-60
2022/06/07 00:58:22;;;;;;;8.98;6.10;;;;;;;13.41;89.72;93952.09;5124246;27;20035;-58
2022/06/07 01:00:49;;;;;;;7.72;5.60;;;;;;;13.37;91.19;93947.44;5113785;27;20039;-60
2022/06/07 01:03:19;;;;;;;7.72;5.38;;;;;;;13.63;90.28;93930.25;5130855;27;20049;-58
2022/06/07 01:05:47;;;;;;;7.90;5.23;;;;;;;13.57;89.70;93922.50;5130432;27;20059;-57
2022/06/07 01:10:59;;;;;;;8.07;4.97;;;;;;;13.61;90.60;93927.91;5130479;27;20620;-60
2022/06/07 01:13:31;;;;;;;7.88;5.22;;;;;;;13.54;90.79;93936.38;5131133;27;20458;-59
2022/06/07 01:16:04;;;;;;;8.65;6.30;;;;;;;13.12;93.05;93931.50;5130430;27;20054;-58
2022/06/07 01:18:32;;;;;;;7.43;5.37;;;;;;;13.27;93.54;93931.91;5131118;27;20091;-58
2022/06/07 01:21:22;;;;;;;8.60;6.10;;;;;;;13.11;93.56;93929.16;5130533;27;20049;-60
2022/06/07 01:23:49;;;;;;;9.13;6.50;;;;;;;13.31;93.77;93923.59;5116903;27;20043;-61
2022/06/07 01:26:15;;;;;;;9.73;6.45;;;;;;;13.30;93.56;93916.50;5131291;27;20043;-58
2022/06/07 01:28:42;;;;;;;9.25;6.38;;;;;;;13.27;93.86;93915.38;5130714;27;20069;-60
2022/06/07 01:31:09;;;;;;;8.77;6.47;;;;;;;13.26;94.41;93913.03;5130546;27;20045;-58
2022/06/07 01:33:36;;;;;;;9.07;6.90;;;;;;;12.79;95.76;93906.69;5130552;27;20058;-58
2022/06/07 01:36:11;;;;;;;9.77;7.13;;;;;;;12.69;97.22;93906.97;5130387;27;20045;-59
2022/06/07 01:38:40;;;;;;;9.32;7.07;;;;;;;12.73;97.90;93904.91;5130907;27;20039;-59
2022/06/07 01:43:53;;;;;;;9.17;6.70;;;;;;;12.96;96.96;93901.97;5130200;27;20035;-60
2022/06/07 01:46:21;;;;;;;8.05;5.80;;;;;;;12.95;95.84;93905.16;5130856;27;20043;-60
2022/06/07 01:48:48;;;;;;;8.93;5.57;;;;;;;13.04;95.41;93896.28;5128681;27;20047;-60
2022/06/07 01:51:16;;;;;;;7.30;4.90;;;;;;;13.27;93.78;93903.59;5130798;27;20038;-59
2022/06/07 01:53:43;;;;;;;6.72;5.10;;;;;;;13.26;93.20;93902.81;5130669;27;20045;-59
2022/06/07 01:56:14;;;;;;;6.77;4.50;;;;;;;13.36;93.58;93901.78;5121232;27;20578;-59
2022/06/07 01:58:42;;;;;;;6.68;4.40;;;;;;;13.41;92.23;93903.22;5130561;27;20045;-59
2022/06/07 02:01:11;;;;;;;6.18;4.35;;;;;;;13.43;92.21;93897.28;5130081;27;20045;-59
2022/06/07 02:03:38;;;;;;;5.88;4.32;;;;;;;13.40;91.64;93901.69;5130306;27;20556;-58
2022/06/07 02:06:08;;;;;;;5.82;4.10;;;;;;;13.22;91.30;93893.06;5129859;27;20062;-58
2022/06/07 02:08:36;;;;;;;7.17;4.00;;;;;;;13.17;92.51;93895.16;5130477;27;20049;-58
2022/06/07 02:11:06;;;;;;;7.63;4.35;;;;;;;13.05;92.22;93886.81;5129865;27;20422;-59
2022/06/07 02:13:33;;;;;;;6.32;4.40;;;;;;;12.71;93.21;93883.28;5130535;27;20061;-60
2022/06/07 02:16:00;;;;;;;6.63;4.90;;;;;;;12.22;95.47;93869.50;5129623;27;20046;-58
2022/06/07 02:18:27;;;;;;;8.60;5.05;;;;;;;12.23;96.03;93881.28;5130281;27;20490;-59
2022/06/07 02:20:56;;;;;;;7.90;4.77;;;;;;;12.60;95.43;93877.28;5129653;27;20040;-63
2022/06/07 02:23:24;;;;;;;7.15;4.78;;;;;;;12.62;94.80;93869.38;5115958;27;20039;-59
2022/06/07 02:25:53;;;;;;;7.13;4.60;;;;;;;12.81;93.92;93861.44;5129714;27;20051;-61
2022/06/07 02:28:25;;;;;;;7.65;4.32;;;;;;;12.67;93.97;93849.56;5117110;27;20050;-59
2022/06/07 02:30:53;;;;;;;6.47;4.80;;;;;;;12.41;95.26;93847.84;5112382;27;20048;-60
2022/06/07 02:33:22;;;;;;;8.13;4.60;;;;;;;12.71;94.30;93843.97;5130101;28;20039;-62
2022/06/07 02:35:49;;;;;;;6.85;4.45;;;;;;;12.95;93.35;93839.03;5129434;27;20070;-63
2022/06/07 02:38:16;;;;;;;7.80;4.50;;;;;;;12.86;92.76;93842.44;5130166;27;20404;-58
2022/06/07 02:40:46;;;;;;;10.02;4.60;;;;;;;13.08;92.45;93845.41;5130241;27;20057;-60
2022/06/07 02:43:13;;;;;;;6.65;4.63;;;;;;;12.77;92.12;93845.00;5129275;27;20168;-60
2022/06/07 02:45:40;;;;;;;7.40;4.57;;;;;;;12.45;94.03;93832.78;5130165;27;20513;-59
2022/06/07 02:48:08;;;;;;;7.32;5.20;;;;;;;12.34;95.55;93837.78;5129424;27;20088;-64
2022/06/07 02:50:35;;;;;;;6.55;4.45;;;;;;;12.84;94.27;93838.53;5129967;27;20190;-64
2022/06/07 02:53:03;;;;;;;8.32;4.53;;;;;;;12.80;94.00;93835.91;5129414;27;20047;-60
2022/06/07 02:55:29;;;;;;;9.88;4.60;;;;;;;12.83;92.92;93840.53;5130021;27;20094;-61
2022/06/07 02:57:57;;;;;;;7.37;4.47;;;;;;;12.94;92.84;93841.03;5129887;27;20042;-60
2022/06/07 03:00:23;;;;;;;6.55;4.40;;;;;;;12.92;93.10;93839.94;5130664;27;20039;-59
2022/06/07 03:02:50;;;;;;;7.60;4.35;;;;;;;12.99;91.77;93843.25;5132791;27;20053;-59
2022/06/07 03:05:17;;;;;;;8.00;4.57;;;;;;;12.85;92.23;93840.09;5133510;27;20051;-64
2022/06/07 03:07:44;;;;;;;6.90;4.30;;;;;;;13.04;91.85;93841.97;5133512;27;20496;-60
2022/06/07 03:10:11;;;;;;;6.90;4.60;;;;;;;12.74;92.12;93841.13;5124406;27;21817;-64
2022/06/07 03:12:38;;;;;;;6.50;4.30;;;;;;;12.94;90.98;93838.28;5132201;27;20053;-60
2022/06/07 03:15:05;;;;;;;6.40;4.45;;;;;;;12.96;91.30;93840.63;5133012;27;20055;-59
2022/06/07 03:17:32;;;;;;;6.25;4.10;;;;;;;13.15;91.02;93849.94;5133260;27;20039;-58
2022/06/07 03:19:59;;;;;;;5.82;4.30;;;;;;;12.65;91.18;93840.97;5132560;27;20047;-60
2022/06/07 03:22:26;;;;;;;6.60;4.20;;;;;;;12.75;91.27;93850.94;5132985;27;20412;-59
2022/06/07 03:24:52;;;;;;;7.70;4.25;;;;;;;12.57;92.14;93848.63;5131413;27;20051;-61
2022/06/07 03:27:19;;;;;;;6.85;4.20;;;;;;;12.45;91.57;93854.81;5127803;27;20048;-59
2022/06/07 03:29:46;;;;;;;5.55;4.05;;;;;;;12.52;91.92;93848.38;5077081;28;20046;-57
2022/06/07 03:32:13;;;;;;;6.93;4.40;;;;;;;12.49;93.18;93847.22;5123493;27;20039;-58
2022/06/07 03:34:39;;;;;;;6.93;4.30;;;;;;;12.59;92.32;93856.44;5116925;27;20446;-60
2022/06/07 03:37:07;;;;;;;6.88;4.25;;;;;;;12.73;91.78;93847.84;5124116;27;20042;-60
2022/06/07 03:39:33;;;;;;;7.10;4.35;;;;;;;12.58;92.51;93844.66;5132419;27;20047;-61
2022/06/07 03:42:01;;;;;;;6.35;4.57;;;;;;;12.55;91.71;93842.00;5132051;27;20065;-59
2022/06/07 03:44:27;;;;;;;6.35;4.07;;;;;;;12.48;91.78;93845.69;5132352;27;20041;-59
2022/06/07 03:46:54;;;;;;;6.57;4.00;;;;;;;12.74;91.94;93843.91;5131730;27;20043;-59
2022/06/07 03:49:21;;;;;;;6.38;3.97;;;;;;;13.07;90.83;93843.06;5131935;27;20042;-61
2022/06/07 03:51:48;;;;;;;7.35;4.13;;;;;;;13.19;90.29;93858.91;5115220;27;20511;-59
2022/06/07 03:54:15;;;;;;;6.03;3.70;;;;;;;13.23;88.92;93862.34;5130580;27;20038;-61
2022/06/07 03:56:42;;;;;;;6.57;3.90;;;;;;;13.36;89.08;93863.19;5132051;27;20047;-63
2022/06/07 03:59:08;;;;;;;5.40;3.90;;;;;;;13.30;89.64;93861.38;5131433;27;20039;-60
2022/06/07 04:01:35;;;;;;;6.65;4.13;;;;;;;13.34;89.83;93862.06;5131914;27;20039;-61
2022/06/07 04:04:08;;;;;;;5.65;4.22;;;;;;;13.34;89.56;93865.63;5131325;27;20043;-65
2022/06/07 04:06:40;;;;;;;5.60;3.55;;;;;;;13.36;89.36;93870.66;5131885;27;20453;-60
2022/06/07 04:09:07;;;;;;;6.47;4.15;;;;;;;13.32;89.14;93868.03;5131128;27;20039;-61
2022/06/07 04:11:34;;;;;;;6.70;5.53;;;;;;;13.39;89.20;93867.06;5131938;27;20054;-60
2022/06/07 04:14:01;;;;;;;6.13;4.03;;;;;;;13.44;88.74;93869.31;5131372;27;20039;-60
2022/06/07 04:16:30;;;;;;;5.15;3.33;;;;;;;13.50;87.35;93864.00;5131530;27;20504;-60
2022/06/07 04:18:57;;;;;;;4.72;3.20;;;;;;;13.54;87.53;93867.44;5131358;27;20412;-60
2022/06/07 04:21:24;;;;;;;7.13;4.15;;;;;;;13.32;88.04;93872.75;5131232;27;20544;-60
2022/06/07 04:23:52;;;;;;;7.97;5.80;;;;;;;13.15;89.81;93878.28;5131209;27;20045;-60
2022/06/07 04:26:26;;;;;;;7.35;4.97;;;;;;;13.36;88.79;93881.69;5131034;27;20051;-63
2022/06/07 04:28:53;;;;;;;7.57;5.00;;;;;;;13.43;88.60;93881.53;5112742;27;20039;-61
2022/06/07 04:31:23;;;;;;;6.55;4.35;;;;;;;13.41;87.43;93885.94;5115337;27;20412;-60
2022/06/07 04:33:50;;;;;;;6.53;4.00;;;;;;;13.42;87.83;93880.00;5131295;27;20031;-60
2022/06/07 04:36:24;;;;;;;6.47;4.40;;;;;;;13.30;88.02;93889.75;5131546;27;20050;-60
2022/06/07 04:38:52;;;;;;;6.05;4.15;;;;;;;13.12;88.85;93884.66;5131294;27;20047;-61
2022/06/07 04:41:21;;;;;;;7.22;4.60;;;;;;;13.30;89.15;93886.19;5131352;27;20066;-61
2022/06/07 04:43:50;;;;;;;9.90;4.55;;;;;;;13.31;88.77;93891.28;5131010;27;20436;-62
2022/06/07 04:46:18;;;;;;;6.53;4.68;;;;;;;13.42;89.53;93892.97;5131126;27;20396;-62
2022/06/07 04:48:47;;;;;;;7.23;4.10;;;;;;;13.57;88.91;93899.66;5130515;27;20434;-63
2022/06/07 04:51:17;;;;;;;6.97;4.72;;;;;;;13.60;88.76;93901.53;5130857;27;20050;-63
2022/06/07 04:53:46;;;;;;;7.68;4.30;;;;;;;13.74;88.08;93905.91;5116419;27;20039;-59
2022/06/07 04:56:26;;;;;;;7.05;4.47;;;;;;;13.79;87.94;93903.38;5112941;27;20032;-59
2022/06/07 04:58:54;;;;;;;9.40;4.65;;;;;;;13.81;87.94;93908.47;5130780;27;20058;-60
2022/06/07 05:01:25;;;;;;;6.70;4.37;;;;;;;13.41;89.05;93905.22;5129727;27;20047;-60
2022/06/07 05:03:53;;;;;;;7.55;5.05;;;;;;;13.08;91.60;93906.03;5130466;27;20047;-60
2022/06/07 05:06:28;;;;;;;7.43;4.63;;;;;;;13.14;91.66;93915.31;5126036;27;20040;-65
2022/06/07 05:08:58;;;;;;;9.05;5.00;;;;;;;13.20;90.76;93907.31;5098595;27;20048;-60
2022/06/07 05:11:27;;;;;;;7.20;4.85;;;;;;;13.13;90.23;93911.00;5131098;27;20043;-66
2022/06/07 05:13:55;;;;;;;10.20;5.13;;;;;;;13.22;91.65;93924.19;5130530;27;20039;-60
2022/06/07 05:16:22;;;;;;;6.38;4.47;;;;;;;12.97;91.80;93924.78;5130876;27;20050;-60
2022/06/07 05:18:51;;;;;;;8.57;4.90;;;;;;;12.88;93.48;93921.88;5130321;27;20080;-59
2022/06/07 05:21:19;;;;;;;7.20;4.20;;;;;;;12.87;92.37;93920.31;5129600;27;20047;-60
2022/06/07 05:23:46;;;;;;;7.00;4.63;;;;;;;13.13;91.82;93935.03;5129865;27;20051;-58
2022/06/07 05:26:17;;;;;;;7.57;5.10;;;;;;;13.04;91.79;93932.09;5130908;27;20378;-60
2022/06/07 05:28:44;;;;;;;8.20;4.40;;;;;;;13.11;91.72;93938.19;5130954;27;20047;-61
2022/06/07 05:31:11;;;;;;;7.10;5.13;;;;;;;12.52;94.92;93930.97;5121602;27;20764;-60
2022/06/07 05:33:38;;;;;;;7.40;4.78;;;;;;;12.66;96.41;93927.88;5130757;27;20384;-60
2022/06/07 05:36:06;;;;;;;8.30;5.43;;;;;;;12.73;95.67;93918.66;5130208;27;20409;-64
2022/06/07 05:38:33;;;;;;;6.97;4.80;;;;;;;12.99;94.72;93912.13;5130406;27;20043;-60
2022/06/07 05:41:00;;;;;;;6.30;4.40;;;;;;;13.12;92.35;93920.47;5129986;27;20047;-60
2022/06/07 05:43:27;;;;;;;8.70;4.60;;;;;;;12.91;93.17;93932.00;5130575;27;20043;-60
2022/06/07 05:45:56;;;;;;;7.47;4.35;;;;;;;12.79;93.44;93928.72;5130009;27;20084;-60
2022/06/07 05:48:23;;;;;;;6.72;4.20;;;;;;;12.95;93.43;93927.97;5130490;27;20393;-64
2022/06/07 05:50:51;;;;;;;5.77;4.07;;;;;;;13.31;92.50;93935.38;5129628;27;20043;-60
2022/06/07 05:53:19;;;;;;;5.35;4.00;;;;;;;13.55;89.48;93941.44;5130016;27;20050;-60
2022/06/07 05:55:47;;;;;;;5.78;3.92;;;;;;;13.29;89.58;93937.78;5124595;27;20035;-58
2022/06/07 05:58:14;;;;;;;5.95;4.10;;;;;;;13.17;90.20;93939.22;5130275;27;20053;-60
2022/06/07 06:00:41;;;;;;;5.82;3.65;;;;;;;13.37;89.36;93944.66;5114631;28;20047;-61
2022/06/07 06:03:10;;;;;;;6.30;3.67;;;;;;;13.82;87.72;93956.13;5129504;27;20062;-66
2022/06/07 06:05:36;;;;;;;6.65;3.80;;;;;;;13.58;88.10;93948.06;5130133;27;20462;-64
2022/06/07 06:11:02;;;;;;;6.07;3.55;;;;;;;14.12;87.01;93954.91;5129972;27;20496;-60
2022/06/07 06:13:29;;;;;;;5.45;3.78;;;;;;;13.88;85.70;93955.16;5130342;27;20501;-61
2022/06/07 06:16:09;;;;;;;5.10;3.70;;;;;;;13.84;85.69;93948.94;5129734;27;20047;-61
2022/06/07 06:18:39;;;;;;;5.18;3.78;;;;;;;14.30;84.00;93946.88;5130438;27;20045;-61
2022/06/07 06:21:06;;;;;;;5.45;3.80;;;;;;;14.79;83.32;93945.88;5129838;27;20397;-61
2022/06/07 06:23:33;;;;;;;4.82;3.60;;;;;;;14.62;83.39;93942.41;5130201;27;20069;-61
2022/06/07 06:26:00;;;;;;;5.07;3.30;;;;;;;15.02;81.85;93938.44;5129799;27;20073;-65
2022/06/07 06:28:27;;;;;;;5.93;3.60;;;;;;;15.15;80.20;93944.72;5129851;27;20047;-61
2022/06/07 06:30:54;;;;;;;5.82;3.10;;;;;;;15.49;80.16;93940.44;5129803;27;20390;-59
2022/06/07 06:33:21;;;;;;;4.85;3.10;;;;;;;16.12;77.06;93947.00;5129965;27;20416;-60
2022/06/07 06:35:51;;;;;;;5.07;2.92;;;;;;;16.66;75.54;93937.47;5130940;27;20048;-60
2022/06/07 06:38:19;;;;;;;5.35;2.80;;;;;;;17.39;72.00;93943.75;5133937;27;20413;-60
2022/06/07 06:40:46;;;;;;;4.17;2.90;;;;;;;17.86;68.87;93939.81;5133235;27;20041;-58
2022/06/07 06:43:15;;;;;;;4.85;2.60;;;;;;;17.91;67.97;93939.22;5133992;27;20050;-59
2022/06/07 06:45:43;;;;;;;4.43;2.40;;;;;;;16.43;69.96;93957.34;5134030;27;20046;-57
2022/06/07 06:48:11;;;;;;;3.15;2.20;;;;;;;17.39;67.49;93947.31;5131880;27;20416;-60
2022/06/07 06:50:39;;;;;;;4.28;2.30;;;;;;;17.31;68.50;93946.06;5133724;27;20047;-66
2022/06/07 06:53:06;;;;;;;4.77;2.53;;;;;;;16.08;71.67;93954.66;5133254;27;20080;-63
2022/06/07 06:55:33;;;;;;;3.30;2.20;;;;;;;16.55;70.75;93959.25;5133512;27;20500;-62
2022/06/07 06:58:00;;;;;;;3.75;2.30;;;;;;;16.50;70.83;93960.63;5132793;27;20061;-64
2022/06/07 07:00:27;;;;;;;3.53;2.20;;;;;;;16.13;70.27;93954.84;5133423;27;20396;-60
2022/06/07 07:02:54;;;;;;;3.55;2.30;;;;;;;16.07;70.70;93959.41;5133152;27;20035;-60
2022/06/07 07:05:21;;;;;;;3.30;2.20;;;;;;;16.88;68.92;93956.06;5133016;27;20445;-60
2022/06/07 07:07:48;;;;;;;4.03;2.10;;;;;;;17.52;66.82;93956.25;5132782;27;20388;-63
2022/06/07 07:10:15;;;;;;;3.78;2.20;;;;;;;17.64;64.69;93954.56;5133461;27;20053;-61
2022/06/07 07:12:41;;;;;;;4.97;2.30;;;;;;;17.59;64.48;93955.19;5132997;27;20047;-61
2022/06/07 07:15:13;;;;;;;3.10;2.10;;;;;;;18.26;62.72;93955.56;5132742;27;20035;-63
2022/06/07 07:17:40;;;;;;;4.17;1.93;;;;;;;18.44;60.04;93951.97;5123753;27;20047;-66
2022/06/07 07:20:07;;;;;;;3.58;2.10;;;;;;;18.46;59.63;93943.94;5114179;27;20383;-63
2022/06/07 07:22:36;;;;;;;4.03;2.08;;;;;;;18.46;60.85;93950.25;5130116;27;20382;-61
2022/06/07 07:25:05;;;;;;;3.60;2.15;;;;;;;18.77;59.78;93960.38;5132591;27;20053;-62
2022/06/07 07:27:32;;;;;;;5.07;2.22;;;;;;;20.26;56.92;93953.56;5132813;27;20508;-61
2022/06/07 07:29:59;;;;;;;3.03;1.90;;;;;;;20.90;53.93;93963.31;5132439;27;20074;-60
2022/06/07 07:32:26;;;;;;;4.60;1.75;;;;;;;20.95;52.45;93973.81;5132594;27;20396;-61
2022/06/07 07:34:53;;;;;;;2.78;1.90;;;;;;;21.38;50.59;93969.91;5127088;27;20035;-58
2022/06/07 07:37:20;;;;;;;3.20;1.90;;;;;;;23.18;45.68;93960.84;5132818;27;20449;-60
2022/06/07 07:39:48;;;;;;;3.03;1.60;;;;;;;25.16;40.45;93956.81;5132255;27;20031;-59
2022/06/07 07:42:15;;;;;;;2.93;1.50;;;;;;;27.07;38.15;93944.16;5132685;27;20038;-60
2022/06/07 07:44:42;;;;;;;3.17;1.40;;;;;;;25.55;40.81;93941.97;5132399;27;20051;-62
2022/06/07 07:47:09;;;;;;;4.35;2.40;;;;;;;26.62;38.44;93932.41;5131732;27;20043;-59
2022/06/07 07:49:36;;;;;;;4.07;1.60;;;;;;;26.69;37.52;93946.72;5132490;27;20047;-60
2022/06/07 07:52:03;;;;;;;2.70;1.63;;;;;;;25.31;39.35;93945.31;5131588;27;20069;-60
2022/06/07 07:54:29;;;;;;;2.83;1.63;;;;;;;24.03;42.78;93942.50;5132390;27;20400;-64
2022/06/07 07:56:56;;;;;;;3.28;1.40;;;;;;;24.77;40.92;93949.13;5130543;27;20488;-59
2022/06/07 07:59:24;;;;;;;3.25;1.63;;;;;;;24.76;40.89;93947.59;5132302;27;20039;-59
2022/06/07 08:01:52;;;;;;;3.00;1.70;;;;;;;23.43;43.54;93956.41;5130227;27;20039;-59
2022/06/07 08:04:19;;;;;;;2.90;1.70;;;;;;;22.80;43.90;93956.38;5132240;27;20043;-59
2022/06/07 08:06:46;;;;;;;3.97;1.80;;;;;;;23.67;42.83;93956.06;5131846;27;20349;-57
2022/06/07 08:09:14;;;;;;;2.88;1.90;;;;;;;24.80;39.85;93950.16;5132183;27;20050;-60
2022/06/07 08:11:42;;;;;;;3.55;2.00;;;;;;;24.80;39.70;93944.53;5113851;27;20069;-60
2022/06/07 08:14:14;;;;;;;3.72;1.90;;;;;;;26.70;36.27;93941.84;5131329;27;20039;-60
2022/06/07 08:16:42;;;;;;;2.55;1.60;;;;;;;24.11;39.87;93942.81;5132103;27;20043;-59
2022/06/07 08:19:09;;;;;;;2.50;1.50;;;;;;;26.35;37.18;93934.84;5131630;27;20035;-60
2022/06/07 08:21:37;;;;;;;2.20;1.40;;;;;;;28.78;31.95;93933.38;5131994;27;20040;-59
2022/06/07 08:24:04;;;;;;;2.60;1.77;;;;;;;25.04;38.04;93930.00;5116630;27;20043;-60
2022/06/07 08:26:32;;;;;;;2.80;1.52;;;;;;;23.17;42.71;93941.72;5111263;28;20111;-60
2022/06/07 08:28:59;;;;;;;2.75;1.90;;;;;;;21.45;46.73;93931.22;5129843;27;20073;-60
2022/06/07 08:31:28;;;;;;;2.90;1.47;;;;;;;26.05;37.59;93918.59;5131572;27;20053;-60
2022/06/07 08:39:29;;;;;;;2.88;1.30;;;;;;;29.75;30.24;93910.78;5123363;27;20461;-60
2022/06/07 08:42:03;;;;;;;3.28;1.30;;;;;;;27.60;32.36;93915.03;5115116;27;20044;-60
2022/06/07 08:44:39;;;;;;;2.70;1.47;;;;;;;25.82;37.05;93925.59;5131579;27;20047;-59
2022/06/07 08:47:16;;;;;;;2.40;1.40;;;;;;;28.02;32.53;93922.03;5130985;27;20035;-60
2022/06/07 08:49:43;;;;;;;2.20;1.40;;;;;;;28.94;30.79;93905.44;5131342;27;20043;-64
2022/06/07 08:52:18;;;;;;;2.95;1.38;;;;;;;27.62;32.89;93913.19;5129583;27;20091;-60
2022/06/07 08:54:53;;;;;;;2.10;1.20;;;;;;;28.71;31.61;93907.81;5130963;27;20473;-60
2022/06/07 08:57:48;;;;;;;1.90;1.10;;;;;;;30.80;28.02;93899.13;5131321;27;20043;-60
2022/06/07 09:00:27;;;;;;;2.63;0.98;;;;;;;31.59;26.68;93902.91;5109616;28;20922;-60
2022/06/07 09:03:53;;;;;;;1.98;1.02;;;;;;;31.88;25.68;93902.97;5129049;27;20035;-60
2022/06/07 09:06:23;;;;;;;2.60;1.10;;;;;;;30.61;27.29;93902.88;5066008;27;20867;-61
2022/06/07 09:08:54;;;;;;;2.10;1.02;;;;;;;32.31;25.18;93899.44;5130427;27;20054;-61
2022/06/07 09:14:39;;;;;;;2.78;0.90;;;;;;;31.61;25.73;93898.22;5124319;27;20412;-60
2022/06/07 09:17:13;;;;;;;2.88;0.95;;;;;;;28.90;28.61;93893.69;5130321;27;20115;-61
2022/06/07 09:19:42;;;;;;;2.17;0.88;;;;;;;27.49;31.76;93894.13;5131024;27;20052;-60
2022/06/07 09:22:17;;;;;;;3.25;1.13;;;;;;;26.77;33.46;93887.03;5128878;27;20047;-59
2022/06/07 09:25:00;;;;;;;3.00;1.00;;;;;;;25.22;37.77;93904.22;5111243;27;20042;-58
2022/06/07 09:27:32;;;;;;;2.47;1.10;;;;;;;24.07;38.85;93901.00;5100302;28;20036;-61
2022/06/07 09:30:26;;;;;;;2.38;1.27;;;;;;;23.67;40.65;93894.41;5118153;27;20039;-60
2022/06/07 09:32:54;;;;;;;3.50;1.10;;;;;;;23.22;40.94;93899.78;5127681;27;20051;-59
2022/06/07 09:35:38;;;;;;;2.50;1.30;;;;;;;23.26;40.59;93903.13;5130478;27;20046;-59
2022/06/07 09:38:13;;;;;;;3.50;1.57;;;;;;;23.32;41.32;93897.53;5130046;27;20051;-64
2022/06/07 09:41:36;;;;;;;2.72;1.30;;;;;;;23.00;42.14;93896.78;5130468;27;20057;-58
2022/06/07 09:44:22;;;;;;;2.85;1.35;;;;;;;22.67;42.44;93898.81;5118827;27;20105;-65
2022/06/07 09:47:04;;;;;;;2.50;1.40;;;;;;;22.31;43.84;93897.44;5129792;27;20043;-58
2022/06/07 09:49:40;;;;;;;2.10;1.27;;;;;;;22.41;42.71;93893.22;5130737;27;20039;-60
2022/06/07 09:52:21;;;;;;;3.23;1.20;;;;;;;22.82;41.44;93890.28;5130162;27;20450;-58
2022/06/07 09:54:53;;;;;;;3.00;1.50;;;;;;;23.11;41.94;93889.25;5130044;27;20424;-65
2022/06/07 09:57:37;;;;;;;3.03;1.23;;;;;;;23.66;41.62;93875.31;5130295;27;20043;-58
2022/06/07 10:00:31;;;;;;;2.30;1.30;;;;;;;23.41;41.47;93869.34;5129935;27;20529;-59
2022/06/07 10:03:21;;;;;;;2.20;1.20;;;;;;;23.63;40.88;93870.72;5129653;27;20031;-60
2022/06/07 10:06:16;;;;;;;2.40;1.20;;;;;;;23.91;40.48;93877.22;5121429;27;20401;-59
2022/06/07 10:09:04;;;;;;;2.10;1.10;;;;;;;24.03;40.28;93872.44;5129199;27;20043;-60
2022/06/07 10:11:55;;;;;;;2.38;1.38;;;;;;;23.33;42.10;93871.06;5128182;27;20419;-60
2022/06/07 10:14:55;;;;;;;2.58;1.33;;;;;;;24.32;39.35;93868.41;5133632;27;20069;-59
2022/06/07 10:18:03;;;;;;;2.45;1.20;;;;;;;24.97;38.45;93860.31;5107716;28;20592;-59
2022/06/07 10:20:46;;;;;;;2.10;1.20;;;;;;;24.81;39.10;93859.03;5088848;27;20073;-62
2022/06/07 10:23:22;;;;;;;2.72;1.00;;;;;;;25.05;37.42;93852.91;5109183;27;20100;-63
2022/06/07 10:26:15;;;;;;;3.47;1.20;;;;;;;24.96;38.60;93853.19;5108078;27;20039;-58
2022/06/07 10:28:53;;;;;;;2.65;1.17;;;;;;;24.81;38.55;93856.22;5112880;28;20065;-59
2022/06/07 10:31:50;;;;;;;2.10;1.33;;;;;;;23.88;40.21;93853.00;5132657;27;20066;-63
2022/06/07 10:34:37;;;;;;;2.13;1.17;;;;;;;23.05;42.34;93851.31;5125220;27;20043;-59
2022/06/07 10:37:19;;;;;;;2.10;1.10;;;;;;;22.26;43.19;93859.03;5133065;27;20038;-59
2022/06/07 10:40:14;;;;;;;3.03;1.10;;;;;;;22.76;42.50;93858.72;5130128;27;20051;-64
2022/06/07 10:42:50;;;;;;;1.80;1.05;;;;;;;23.57;40.69;93850.31;5124543;27;20049;-58
2022/06/07 10:45:21;;;;;;;3.08;1.10;;;;;;;25.45;36.44;93839.56;5131170;27;20047;-58
2022/06/07 10:48:06;;;;;;;2.10;1.20;;;;;;;26.99;34.75;93841.81;5132646;27;20039;-57
2022/06/07 10:50:48;;;;;;;2.03;0.90;;;;;;;27.03;33.17;93830.25;5132953;27;20045;-59
2022/06/07 10:53:38;;;;;;;1.77;0.98;;;;;;;24.95;36.73;93829.97;5132728;27;20234;-60
2022/06/07 10:56:19;;;;;;;1.83;1.00;;;;;;;24.47;37.32;93828.16;5132242;27;20046;-60
2022/06/07 10:58:50;;;;;;;2.80;1.13;;;;;;;23.47;39.67;93833.72;5118578;27;20054;-56
2022/06/07 11:01:21;;;;;;;2.00;1.00;;;;;;;23.65;39.69;93840.94;5133173;27;20039;-65
2022/06/07 11:10:11;;;;;;;2.30;1.10;;;;;;;23.96;38.70;93824.50;5118778;27;20043;-59
2022/06/07 11:13:17;;;;;;;2.35;1.00;;;;;;;23.62;39.93;93830.72;5132577;27;20047;-60
2022/06/07 11:15:59;;;;;;;1.60;0.80;;;;;;;23.38;40.00;93827.56;5095915;27;20380;-61
2022/06/07 11:18:27;;;;;;;2.17;0.90;;;;;;;22.46;42.18;93830.25;5131825;27;20110;-59
2022/06/07 11:21:01;;;;;;;7.10;1.08;;;;;;;21.97;44.27;93837.63;5131960;27;20054;-59
2022/06/07 11:23:46;;;;;;;3.55;0.93;;;;;;;21.22;49.98;93831.63;5131418;27;20039;-65
2022/06/07 11:26:18;;;;;;;6.18;1.40;;;;;;;20.06;57.11;93837.19;5102540;27;21581;-59
2022/06/07 11:28:53;;;;;;;5.27;1.20;;;;;;;19.87;59.84;93833.03;5131739;27;20055;-54
2022/06/07 11:31:40;;;;;;;4.35;1.23;;;;;;;19.94;60.58;93829.84;5131921;27;20057;-59
2022/06/07 11:34:24;;;;;;;2.60;1.40;;;;;;;20.21;60.23;93828.81;5131487;27;20047;-61
2022/06/07 11:37:02;;;;;;;3.05;1.10;;;;;;;20.76;58.32;93833.00;5131742;27;20039;-61
2022/06/07 11:39:38;;;;;;;4.00;1.15;;;;;;;20.06;61.24;93823.25;5132274;27;20049;-58
2022/06/07 11:42:14;;;;;;;2.73;1.10;;;;;;;20.33;60.87;93827.00;5131554;27;20473;-59
2022/06/07 11:44:46;;;;;;;2.40;1.25;;;;;;;20.75;58.41;93823.88;5132132;27;20505;-58
2022/06/07 11:47:14;;;;;;;3.35;1.20;;;;;;;21.81;56.20;93820.19;5131121;27;20642;-60
2022/06/07 11:49:45;;;;;;;4.65;1.55;;;;;;;21.60;57.67;93811.06;5131976;27;20055;-59
2022/06/07 11:52:11;;;;;;;2.50;1.27;;;;;;;22.12;57.27;93811.09;5131277;27;21791;-60
2022/06/07 11:54:45;;;;;;;2.90;1.23;;;;;;;22.67;53.76;93812.09;5131727;27;20043;-64
2022/06/07 11:57:31;;;;;;;2.95;1.30;;;;;;;22.49;54.37;93804.81;5130950;27;21753;-60
2022/06/07 12:00:16;;;;;;;2.10;1.20;;;;;;;22.07;55.19;93811.81;5127490;27;20052;-62
2022/06/07 12:03:08;;;;;;;3.13;1.27;;;;;;;22.01;54.82;93813.00;5113064;27;20066;-63
2022/06/07 12:05:41;;;;;;;3.67;1.85;;;;;;;22.24;55.42;93805.66;5104522;28;21961;-59
2022/06/07 12:08:24;;;;;;;2.27;1.20;;;;;;;22.61;54.52;93802.88;5111426;27;20042;-59
2022/06/07 12:11:03;;;;;;;2.40;1.38;;;;;;;22.40;53.09;93801.47;5120911;27;20048;-59
2022/06/07 12:13:51;;;;;;;2.90;1.42;;;;;;;21.99;52.34;93805.13;5131844;27;20043;-64
2022/06/07 12:16:35;;;;;;;2.92;1.30;;;;;;;22.31;52.30;93802.41;5130984;27;20624;-61
2022/06/07 12:19:22;;;;;;;3.75;1.58;;;;;;;22.63;52.22;93797.56;5117344;27;20488;-59